createdAt,value
2022-08-16T04:03:12.192Z,17.24
2022-08-16T04:04:13.077Z,17.22
2022-08-16T04:05:13.069Z,17.22
2022-08-16T04:06:13.079Z,17.20
2022-08-16T04:07:13.044Z,17.17
2022-08-16T04:08:22.420Z,17.17
2022-08-16T04:09:13.020Z,17.17
2022-08-16T04:10:37.019Z,17.14
2022-08-16T04:11:16.385Z,17.15
2022-08-16T04:12:54.536Z,17.17
2022-08-16T04:13:20.395Z,17.17
2022-08-16T04:14:33.019Z,17.15
2022-08-16T04:15:14.254Z,17.15
2022-08-16T04:16:27.700Z,17.14
2022-08-16T04:17:12.927Z,17.17
2022-08-16T04:18:12.922Z,17.17
2022-08-16T04:19:12.908Z,17.17
2022-08-16T04:20:23.649Z,17.18
2022-08-16T04:21:12.894Z,17.18
2022-08-16T04:22:12.878Z,17.15
2022-08-16T04:23:12.862Z,17.17
2022-08-16T04:24:12.847Z,17.18
2022-08-16T04:25:12.845Z,17.18
2022-08-16T04:26:16.728Z,17.18
2022-08-16T04:27:12.809Z,17.18
2022-08-16T04:28:51.922Z,17.18
2022-08-16T04:29:15.070Z,17.18
2022-08-16T04:30:12.790Z,17.15
2022-08-16T04:31:12.780Z,17.15
2022-08-16T04:32:12.797Z,17.14
2022-08-16T04:33:12.824Z,17.10
2022-08-16T04:34:13.037Z,17.10
2022-08-16T04:35:16.298Z,17.09
2022-08-16T04:36:12.751Z,17.06
2022-08-16T04:37:12.719Z,17.05
2022-08-16T04:38:20.928Z,17.03
2022-08-16T04:39:12.691Z,17.05
2022-08-16T04:40:20.529Z,17.03
2022-08-16T04:41:12.679Z,17.02
2022-08-16T04:42:12.647Z,17.02
2022-08-16T04:43:19.187Z,17.03
2022-08-16T04:44:32.831Z,17.05
2022-08-16T04:45:12.640Z,17.06
2022-08-16T04:46:26.562Z,17.06
2022-08-16T04:47:21.128Z,17.07
2022-08-16T04:48:22.025Z,17.09
2022-08-16T04:49:12.579Z,17.10
2022-08-16T04:50:12.563Z,17.12
2022-08-16T04:51:12.833Z,17.14
2022-08-16T04:52:33.819Z,17.15
2022-08-16T04:53:12.539Z,17.15
2022-08-16T04:54:12.520Z,17.15
2022-08-16T04:55:12.515Z,17.15
2022-08-16T04:56:12.520Z,17.15
2022-08-16T04:57:12.490Z,17.15
2022-08-16T04:58:45.275Z,17.15
2022-08-16T04:59:12.456Z,17.15
2022-08-16T05:00:31.304Z,17.15
2022-08-16T05:01:12.433Z,17.15
2022-08-16T05:02:41.107Z,17.18
2022-08-16T05:03:12.468Z,17.18
2022-08-16T05:04:19.263Z,17.20
2022-08-16T05:05:17.856Z,17.20
2022-08-16T05:06:12.409Z,17.22
2022-08-16T05:07:20.313Z,17.21
2022-08-16T05:08:29.424Z,17.21
2022-08-16T05:09:12.357Z,17.21
2022-08-16T05:10:20.027Z,17.24
2022-08-16T05:11:12.343Z,17.22
2022-08-16T05:12:21.975Z,17.24
2022-08-16T05:13:15.741Z,17.24
2022-08-16T05:14:12.295Z,17.27
2022-08-16T05:15:12.308Z,17.27
2022-08-16T05:16:19.898Z,17.25
2022-08-16T05:17:12.280Z,17.27
2022-08-16T05:18:16.193Z,17.30
2022-08-16T05:19:16.286Z,17.33
2022-08-16T05:20:39.535Z,17.35
2022-08-16T05:21:12.662Z,17.36
2022-08-16T05:22:18.004Z,17.38
2022-08-16T05:24:24.906Z,17.43
2022-08-16T05:25:24.375Z,17.43
2022-08-16T05:26:23.910Z,17.45
2022-08-16T05:27:23.882Z,17.47
2022-08-16T05:28:37.420Z,17.49
2022-08-16T05:29:24.958Z,17.54
2022-08-16T05:30:34.808Z,17.55
2022-08-16T05:31:29.328Z,17.57
2022-08-16T05:32:32.511Z,17.62
2022-08-16T05:33:23.822Z,17.66
2022-08-16T05:34:23.841Z,17.68
2022-08-16T05:35:24.439Z,17.73
2022-08-16T05:36:23.778Z,17.73
2022-08-16T05:37:24.347Z,17.73
2022-08-16T05:38:33.181Z,17.74
2022-08-16T05:39:23.743Z,17.77
2022-08-16T05:40:24.153Z,17.80
2022-08-16T05:41:23.986Z,17.83
2022-08-16T05:42:35.582Z,17.84
2022-08-16T05:43:23.956Z,17.87
2022-08-16T05:44:24.981Z,17.91
2022-08-16T05:45:23.919Z,17.92
2022-08-16T05:46:30.257Z,17.94
2022-08-16T05:47:23.688Z,17.98
2022-08-16T05:48:27.005Z,17.99
2022-08-16T05:49:23.632Z,18.05
2022-08-16T05:50:28.352Z,18.09
2022-08-16T05:51:23.671Z,18.11
2022-08-16T05:52:23.606Z,18.16
2022-08-16T05:53:24.434Z,18.19
2022-08-16T05:54:25.497Z,18.25
2022-08-16T05:55:23.562Z,18.28
2022-08-16T05:56:23.555Z,18.32
2022-08-16T05:57:23.545Z,18.35
2022-08-16T05:58:33.201Z,18.41
2022-08-16T05:59:23.548Z,18.44
2022-08-16T06:00:23.525Z,18.47
2022-08-16T06:01:23.531Z,18.51
2022-08-16T06:02:23.497Z,18.53
2022-08-16T06:03:23.523Z,18.59
2022-08-16T06:04:35.825Z,18.62
2022-08-16T06:05:23.546Z,18.64
2022-08-16T06:06:27.926Z,18.68
2022-08-16T06:07:24.587Z,18.71
2022-08-16T06:08:32.153Z,18.72
2022-08-16T06:09:23.443Z,18.76
2022-08-16T06:10:32.433Z,18.78
2022-08-16T06:11:25.621Z,18.83
2022-08-16T06:12:26.888Z,18.87
2022-08-16T06:13:23.362Z,18.90
2022-08-16T06:14:23.361Z,18.91
2022-08-16T06:15:23.353Z,18.94
2022-08-16T06:16:23.329Z,19.01
2022-08-16T06:17:23.347Z,19.06
2022-08-16T06:18:23.302Z,19.12
2022-08-16T06:19:23.853Z,19.16
2022-08-16T06:20:25.472Z,19.20
2022-08-16T06:21:24.112Z,19.24
2022-08-16T06:22:37.446Z,19.31
2022-08-16T06:23:23.805Z,19.34
2022-08-16T06:24:54.540Z,19.39
2022-08-16T06:25:35.539Z,19.43
2022-08-16T06:26:23.223Z,19.46
2022-08-16T06:27:23.858Z,19.50
2022-08-16T06:28:36.612Z,19.55
2022-08-16T06:29:23.200Z,19.58
2022-08-16T06:30:24.304Z,19.62
2022-08-16T06:31:24.994Z,19.64
2022-08-16T06:32:27.724Z,19.65
2022-08-16T06:33:23.924Z,19.68
2022-08-16T06:34:55.890Z,19.72
2022-08-16T06:35:23.120Z,19.75
2022-08-16T06:36:24.157Z,19.78
2022-08-16T06:37:23.093Z,19.79
2022-08-16T06:38:33.399Z,19.80
2022-08-16T06:39:23.159Z,19.83
2022-08-16T06:40:23.111Z,19.86
2022-08-16T06:41:23.067Z,19.89
2022-08-16T06:42:23.057Z,19.97
2022-08-16T06:43:27.407Z,20.04
2022-08-16T06:44:24.566Z,20.10
2022-08-16T06:45:24.083Z,20.16
2022-08-16T06:46:23.040Z,20.22
2022-08-16T06:47:23.014Z,20.27
2022-08-16T06:48:33.092Z,20.33
2022-08-16T06:49:22.987Z,20.34
2022-08-16T06:50:29.238Z,20.40
2022-08-16T06:51:22.946Z,20.44
2022-08-16T06:52:58.207Z,20.50
2022-08-16T06:53:22.942Z,20.51
2022-08-16T06:54:22.914Z,20.53
2022-08-16T06:55:22.903Z,20.53
2022-08-16T06:56:23.290Z,20.53
2022-08-16T06:57:22.883Z,20.51
2022-08-16T06:58:31.900Z,20.54
2022-08-16T06:59:25.553Z,20.56
2022-08-16T07:00:24.437Z,20.60
2022-08-16T07:01:43.197Z,20.60
2022-08-16T07:02:33.287Z,20.63
2022-08-16T07:03:28.026Z,20.66
2022-08-16T07:04:32.042Z,20.69
2022-08-16T07:05:27.231Z,20.72
2022-08-16T07:06:26.618Z,20.73
2022-08-16T07:07:22.819Z,20.81
2022-08-16T07:08:22.846Z,20.83
2022-08-16T07:09:22.751Z,20.90
2022-08-16T07:10:26.701Z,20.93
2022-08-16T07:11:47.231Z,21.00
2022-08-16T07:12:22.716Z,21.06
2022-08-16T07:13:58.539Z,21.13
2022-08-16T07:14:27.740Z,21.19
2022-08-16T07:15:22.680Z,21.22
2022-08-16T07:16:22.670Z,21.26
2022-08-16T07:17:22.660Z,21.28
2022-08-16T07:18:24.499Z,21.31
2022-08-16T07:19:22.674Z,21.34
2022-08-16T07:20:35.117Z,21.37
2022-08-16T07:21:22.611Z,21.42
2022-08-16T07:22:37.424Z,21.46
2022-08-16T07:23:37.381Z,21.49
2022-08-16T07:24:30.077Z,21.52
2022-08-16T07:25:22.882Z,21.56
2022-08-16T07:26:25.299Z,21.63
2022-08-16T07:27:22.549Z,21.67
2022-08-16T07:28:24.403Z,21.73
2022-08-16T07:29:22.526Z,21.79
2022-08-16T07:30:38.985Z,21.86
2022-08-16T07:31:22.737Z,21.94
2022-08-16T07:32:29.567Z,21.99
2022-08-16T07:33:24.409Z,22.05
2022-08-16T07:34:34.770Z,22.06
2022-08-16T07:35:22.483Z,22.08
2022-08-16T07:36:23.487Z,22.11
2022-08-16T07:37:23.203Z,22.17
2022-08-16T07:38:33.770Z,22.20
2022-08-16T07:39:22.443Z,22.26
2022-08-16T07:40:49.076Z,22.33
2022-08-16T07:41:22.400Z,22.38
2022-08-16T07:42:28.607Z,22.44
2022-08-16T07:43:22.372Z,22.48
2022-08-16T07:44:22.364Z,22.52
2022-08-16T07:45:22.349Z,22.54
2022-08-16T07:46:38.589Z,22.60
2022-08-16T07:47:24.741Z,22.63
2022-08-16T07:48:22.326Z,22.66
2022-08-16T07:49:22.298Z,22.67
2022-08-16T07:50:56.213Z,22.75
2022-08-16T07:51:22.825Z,22.79
2022-08-16T07:52:22.280Z,22.82
2022-08-16T07:53:22.251Z,22.86
2022-08-16T07:54:32.314Z,22.89
2022-08-16T07:55:24.741Z,22.94
2022-08-16T07:56:22.754Z,22.99
2022-08-16T07:57:24.165Z,23.03
2022-08-16T07:58:35.232Z,23.09
2022-08-16T07:59:22.445Z,23.15
2022-08-16T08:00:22.234Z,23.23
2022-08-16T08:01:22.191Z,23.31
2022-08-16T08:02:22.346Z,23.38
2022-08-16T08:03:22.160Z,23.49
2022-08-16T08:04:22.173Z,23.57
2022-08-16T08:05:35.397Z,23.69
2022-08-16T08:06:22.119Z,23.78
2022-08-16T08:07:22.112Z,23.87
2022-08-16T08:08:50.910Z,23.90
2022-08-16T08:09:22.148Z,23.97
2022-08-16T08:10:29.505Z,24.06
2022-08-16T08:11:23.606Z,24.09
2022-08-16T08:12:32.042Z,24.14
2022-08-16T08:13:41.941Z,24.14
2022-08-16T08:14:29.481Z,24.16
2022-08-16T08:15:25.225Z,24.19
2022-08-16T08:16:21.989Z,24.24
2022-08-16T08:17:22.021Z,24.31
2022-08-16T08:18:29.774Z,24.39
2022-08-16T08:19:21.975Z,24.49
2022-08-16T08:20:27.880Z,24.60
2022-08-16T08:21:27.210Z,24.66
2022-08-16T08:22:22.345Z,24.71
2022-08-16T08:23:21.917Z,24.75
2022-08-16T08:24:21.917Z,24.80
2022-08-16T08:25:21.907Z,24.75
2022-08-16T08:26:21.893Z,24.64
2022-08-16T08:27:22.959Z,24.64
2022-08-16T08:28:22.079Z,24.66
2022-08-16T08:29:23.022Z,24.64
2022-08-16T08:30:51.738Z,24.66
2022-08-16T08:31:21.854Z,24.70
2022-08-16T08:33:00.306Z,24.74
2022-08-16T08:33:22.024Z,24.80
2022-08-16T08:34:22.284Z,24.80
2022-08-16T08:35:26.171Z,24.80
2022-08-16T08:36:22.432Z,24.84
2022-08-16T08:37:21.763Z,24.89
2022-08-16T08:38:45.175Z,24.94
2022-08-16T08:39:21.747Z,25.02
2022-08-16T08:40:24.721Z,25.12
2022-08-16T08:41:28.555Z,25.22
2022-08-16T08:42:26.592Z,25.30
2022-08-16T08:43:21.716Z,25.42
2022-08-16T08:44:29.432Z,25.51
2022-08-16T08:45:47.306Z,25.59
2022-08-16T08:46:22.325Z,25.67
2022-08-16T08:47:21.667Z,25.78
2022-08-16T08:48:34.111Z,25.93
2022-08-16T08:49:21.634Z,26.06
2022-08-16T08:50:31.536Z,26.17
2022-08-16T08:51:21.637Z,26.21
2022-08-16T08:52:35.163Z,26.29
2022-08-16T08:53:21.599Z,26.36
2022-08-16T08:54:23.026Z,26.42
2022-08-16T08:55:21.575Z,26.50
2022-08-16T08:56:23.417Z,26.53
2022-08-16T08:57:22.917Z,26.46
2022-08-16T08:58:21.576Z,26.32
2022-08-16T08:59:22.176Z,26.21
2022-08-16T09:00:21.613Z,26.24
2022-08-16T09:01:31.465Z,26.39
2022-08-16T09:02:22.418Z,26.57
2022-08-16T09:03:21.508Z,26.65
2022-08-16T09:04:21.527Z,26.75
2022-08-16T09:05:22.267Z,26.88
2022-08-16T09:06:21.446Z,27.06
2022-08-16T09:07:21.444Z,27.31
2022-08-16T09:08:22.215Z,27.59
2022-08-16T09:09:21.454Z,27.78
2022-08-16T09:10:24.291Z,27.99
2022-08-16T09:11:21.418Z,28.28
2022-08-16T09:12:35.393Z,28.54
2022-08-16T09:13:21.377Z,29.00
2022-08-16T09:14:24.092Z,29.47
2022-08-16T09:15:21.509Z,29.91
2022-08-16T09:17:01.128Z,30.46
2022-08-16T09:17:47.188Z,30.90
2022-08-16T09:18:26.294Z,31.20
2022-08-16T09:19:32.947Z,31.76
2022-08-16T09:20:23.505Z,32.43
2022-08-16T09:21:21.303Z,33.06
2022-08-16T09:22:23.669Z,33.63
2022-08-16T09:23:21.267Z,34.11
2022-08-16T09:24:46.769Z,34.46
2022-08-16T09:25:26.071Z,34.72
2022-08-16T09:26:44.623Z,34.90
2022-08-16T09:27:21.272Z,35.00
2022-08-16T09:29:06.776Z,34.83
2022-08-16T09:29:23.735Z,34.65
2022-08-16T09:30:36.381Z,34.60
2022-08-16T09:31:21.184Z,34.71
2022-08-16T09:32:28.459Z,34.98
2022-08-16T09:33:21.415Z,35.13
2022-08-16T09:34:21.198Z,34.99
2022-08-16T09:35:21.165Z,34.94
2022-08-16T09:36:31.845Z,34.90
2022-08-16T09:37:21.157Z,34.91
2022-08-16T09:38:31.234Z,35.06
2022-08-16T09:39:21.110Z,35.39
2022-08-16T09:40:32.118Z,35.47
2022-08-16T09:41:21.165Z,35.62
2022-08-16T09:42:21.453Z,35.44
2022-08-16T09:43:57.935Z,35.92
2022-08-16T09:45:10.846Z,36.56
2022-08-16T09:45:22.268Z,37.23
2022-08-16T09:46:44.521Z,37.80
2022-08-16T09:47:23.587Z,38.28
2022-08-16T09:48:43.903Z,38.59
2022-08-16T09:49:21.025Z,37.97
2022-08-16T09:50:22.829Z,38.04
2022-08-16T09:51:23.445Z,38.22
2022-08-16T09:52:22.367Z,38.38
2022-08-16T09:53:20.989Z,38.43
2022-08-16T09:54:21.155Z,38.38
2022-08-16T09:55:20.967Z,38.49
2022-08-16T09:56:20.934Z,38.78
2022-08-16T09:57:20.939Z,39.05
2022-08-16T09:58:40.738Z,39.56
2022-08-16T09:59:20.983Z,39.41
2022-08-16T10:00:44.204Z,38.86
2022-08-16T10:01:20.978Z,39.10
2022-08-16T10:02:25.965Z,38.37
2022-08-16T10:03:21.000Z,37.24
2022-08-16T10:04:30.407Z,37.04
2022-08-16T10:05:20.932Z,36.97
2022-08-16T10:06:20.861Z,36.44
2022-08-16T10:07:21.356Z,36.19
2022-08-16T10:08:26.681Z,36.00
2022-08-16T10:09:20.817Z,36.02
2022-08-16T10:10:30.638Z,35.61
2022-08-16T10:11:23.915Z,35.85
2022-08-16T10:12:20.863Z,36.67
2022-08-16T10:13:20.783Z,37.15
2022-08-16T10:14:24.533Z,37.59
2022-08-16T10:15:21.056Z,38.14
2022-08-16T10:16:22.025Z,38.52
2022-08-16T10:17:20.837Z,38.81
2022-08-16T10:19:00.208Z,38.09
2022-08-16T10:19:20.744Z,38.14
2022-08-16T10:20:20.737Z,38.19
2022-08-16T10:21:20.765Z,38.22
2022-08-16T10:22:22.849Z,37.99
2022-08-16T10:23:20.691Z,38.30
2022-08-16T10:24:28.173Z,38.60
2022-08-16T10:27:18.287Z,38.72
2022-08-16T10:27:47.355Z,38.31
2022-08-16T10:28:05.878Z,37.42
2022-08-16T10:28:41.886Z,37.45
2022-08-16T10:29:59.428Z,37.95
2022-08-16T10:30:41.012Z,38.31
2022-08-16T10:31:44.294Z,38.71
2022-08-16T10:32:40.995Z,39.05
2022-08-16T10:33:40.974Z,39.41
2022-08-16T10:34:41.017Z,39.72
2022-08-16T10:35:46.639Z,39.78
2022-08-16T10:36:41.464Z,38.93
2022-08-16T10:37:40.950Z,38.75
2022-08-16T10:38:42.004Z,38.78
2022-08-16T10:39:41.925Z,39.22
2022-08-16T10:40:40.957Z,38.87
2022-08-16T10:41:40.906Z,38.81
2022-08-16T10:42:41.070Z,38.92
2022-08-16T10:43:40.961Z,38.45
2022-08-16T10:44:40.983Z,38.74
2022-08-16T10:45:41.972Z,39.27
2022-08-16T10:46:42.227Z,39.80
2022-08-16T10:47:40.858Z,40.15
2022-08-16T10:48:40.838Z,40.04
2022-08-16T10:49:40.820Z,40.19
2022-08-16T10:50:40.871Z,40.56
2022-08-16T10:52:01.865Z,40.94
2022-08-16T10:53:40.794Z,41.60
2022-08-16T10:55:45.244Z,42.57
2022-08-16T10:56:51.827Z,42.41
2022-08-16T10:57:40.798Z,42.48
2022-08-16T10:58:40.741Z,42.58
2022-08-16T10:59:51.858Z,42.79
2022-08-16T11:00:40.799Z,42.75
2022-08-16T11:01:44.073Z,42.89
2022-08-16T11:02:58.966Z,42.71
2022-08-16T11:03:42.107Z,42.30
2022-08-16T11:06:41.033Z,41.05
2022-08-16T11:07:45.532Z,40.98
2022-08-16T11:08:44.905Z,40.60
2022-08-16T11:09:43.789Z,40.48
2022-08-16T11:12:40.740Z,39.69
2022-08-16T11:15:11.293Z,38.98
2022-08-16T11:15:41.918Z,38.92
2022-08-16T11:17:44.750Z,38.74
2022-08-16T11:19:03.342Z,39.34
2022-08-16T11:20:41.426Z,40.72
2022-08-16T11:22:23.085Z,41.46
2022-08-16T11:22:48.804Z,41.54
2022-08-16T11:23:40.569Z,40.64
2022-08-16T11:24:43.427Z,40.88
2022-08-16T11:26:40.559Z,41.44
2022-08-16T11:27:40.540Z,41.53
2022-08-16T11:29:40.509Z,41.54
2022-08-16T11:30:40.860Z,41.53
2022-08-16T11:31:40.511Z,41.42
2022-08-16T11:32:40.499Z,41.62
2022-08-16T11:33:56.165Z,41.63
2022-08-16T11:35:05.764Z,41.28
2022-08-16T11:35:44.094Z,41.28
2022-08-16T11:36:40.454Z,41.23
2022-08-16T11:38:51.974Z,41.83
2022-08-16T11:39:42.712Z,42.09
2022-08-16T11:40:44.355Z,41.92
2022-08-16T11:41:44.691Z,42.12
2022-08-16T11:42:41.984Z,42.46
2022-08-16T11:43:40.402Z,42.39
2022-08-16T11:44:52.683Z,42.00
2022-08-16T11:45:42.401Z,40.88
2022-08-16T11:46:44.691Z,39.92
2022-08-16T11:47:42.644Z,39.56
2022-08-16T11:48:40.363Z,39.44
2022-08-16T11:49:40.376Z,40.42
2022-08-16T11:50:40.366Z,41.53
2022-08-16T11:51:40.365Z,42.33
2022-08-16T11:52:40.319Z,42.38
2022-08-16T11:53:40.332Z,42.20
2022-08-16T11:54:40.320Z,42.80
2022-08-16T11:55:40.311Z,43.52
2022-08-16T11:56:52.585Z,43.91
2022-08-16T11:57:40.298Z,44.12
2022-08-16T11:58:40.332Z,44.50
2022-08-16T11:59:40.322Z,44.64
2022-08-16T12:00:51.433Z,45.01
2022-08-16T12:01:44.635Z,45.03
2022-08-16T12:02:40.316Z,45.11
2022-08-16T12:03:41.772Z,45.23
2022-08-16T12:04:40.323Z,44.91
2022-08-16T12:05:40.247Z,44.74
2022-08-16T12:06:40.225Z,44.72
2022-08-16T12:07:40.261Z,44.32
2022-08-16T12:08:40.253Z,44.20
2022-08-16T12:09:43.147Z,44.09
2022-08-16T12:10:40.208Z,44.37
2022-08-16T12:11:40.174Z,44.78
2022-08-16T12:12:40.203Z,44.96
2022-08-16T12:13:40.518Z,44.10
2022-08-16T12:14:40.200Z,43.29
2022-08-16T12:15:40.208Z,42.31
2022-08-16T12:16:48.691Z,41.74
2022-08-16T12:17:40.169Z,41.97
2022-08-16T12:18:40.277Z,41.65
2022-08-16T12:19:40.129Z,41.65
2022-08-16T12:20:40.114Z,41.41
2022-08-16T12:21:59.329Z,41.89
2022-08-16T12:22:40.155Z,42.49
2022-08-16T12:23:40.095Z,42.91
2022-08-16T12:24:40.106Z,43.14
2022-08-16T12:25:40.104Z,43.34
2022-08-16T12:26:40.101Z,43.87
2022-08-16T12:27:40.064Z,44.46
2022-08-16T12:28:55.045Z,44.62
2022-08-16T12:29:40.883Z,44.43
2022-08-16T12:30:40.038Z,43.70
2022-08-16T12:32:00.421Z,43.22
2022-08-16T12:32:41.833Z,43.17
2022-08-16T12:33:42.749Z,43.41
2022-08-16T12:34:50.522Z,43.60
2022-08-16T12:35:40.011Z,44.25
2022-08-16T12:36:40.024Z,45.01
2022-08-16T12:37:39.979Z,45.65
2022-08-16T12:38:47.801Z,46.30
2022-08-16T12:39:50.627Z,46.56
2022-08-16T12:40:41.886Z,45.79
2022-08-16T12:41:39.983Z,45.73
2022-08-16T12:42:39.971Z,45.77
2022-08-16T12:43:45.179Z,45.26
2022-08-16T12:44:40.481Z,44.85
2022-08-16T12:45:39.955Z,44.37
2022-08-16T12:46:39.963Z,44.49
2022-08-16T12:47:39.922Z,44.72
2022-08-16T12:48:39.911Z,44.42
2022-08-16T12:49:41.966Z,44.74
2022-08-16T12:50:39.900Z,44.91
2022-08-16T12:51:59.046Z,45.56
2022-08-16T12:52:44.492Z,46.36
2022-08-16T12:53:40.266Z,46.84
2022-08-16T12:54:39.871Z,46.67
2022-08-16T12:55:41.658Z,46.65
2022-08-16T12:56:41.484Z,46.64
